Terminal Aerodrome Forecast
Issued by NWS Sioux Falls, SD

Home | Current Version | Previous Version | Text Only | Print | Product List | Glossary On
Versions: 1 2 3 4 5 6 7 8 9 10 11 12 13 14 15 16
000
FTUS43 KFSD 231136
TAFFSD
TAF
KFSD 231136Z 2312/2412 34006KT P6SM FEW250
     FM231600 34012KT P6SM FEW040
     FM240000 01007KT P6SM SKC
     FM240500 08004KT P6SM SKC
      TEMPO 2409/2412 5SM BR=

USA.gov is the U.S. government's official web portal to all federal, state and local government web resources and services.